createdAt,value
2023-05-06T00:00:15.799Z,1021.3
2023-05-06T00:01:15.857Z,1021.2
2023-05-06T00:02:15.902Z,1021.2
2023-05-06T00:03:15.879Z,1021.2
2023-05-06T00:04:15.835Z,1021.2
2023-05-06T00:05:16.061Z,1021.3
2023-05-06T00:06:15.778Z,1021.2
2023-05-06T00:07:15.793Z,1021.2
2023-05-06T00:08:15.804Z,1021.2
2023-05-06T00:09:15.924Z,1021.2
2023-05-06T00:10:16.883Z,1021.2
2023-05-06T00:11:15.773Z,1021.3
2023-05-06T00:12:15.905Z,1021.2
2023-05-06T00:13:15.944Z,1021.2
2023-05-06T00:14:16.048Z,1021.2
2023-05-06T00:15:16.056Z,1021.2
2023-05-06T00:16:16.148Z,1021.2
2023-05-06T00:17:15.817Z,1021.2
2023-05-06T00:18:15.800Z,1021.2
2023-05-06T00:19:15.761Z,1021.1
2023-05-06T00:20:15.763Z,1021.2
2023-05-06T00:21:15.776Z,1021.1
2023-05-06T00:22:15.803Z,1021.1
2023-05-06T00:23:15.836Z,1021.1
2023-05-06T00:24:15.767Z,1021.1
2023-05-06T00:25:15.749Z,1021.0
2023-05-06T00:26:15.930Z,1021.1
2023-05-06T00:27:16.047Z,1021.1
2023-05-06T00:28:15.778Z,1021.0
2023-05-06T00:29:15.767Z,1021.0
2023-05-06T00:30:15.782Z,1021.0
2023-05-06T00:31:15.778Z,1020.9
2023-05-06T00:32:15.773Z,1021.0
2023-05-06T00:33:15.748Z,1020.9
2023-05-06T00:34:15.705Z,1020.9
2023-05-06T00:35:15.907Z,1021.0
2023-05-06T00:36:15.753Z,1020.9
2023-05-06T00:37:15.768Z,1020.9
2023-05-06T00:38:15.880Z,1020.9
2023-05-06T00:39:15.743Z,1021.0
2023-05-06T00:40:15.732Z,1020.9
2023-05-06T00:41:15.805Z,1020.9
2023-05-06T00:42:15.733Z,1020.8
2023-05-06T00:43:15.712Z,1020.9
2023-05-06T00:44:15.751Z,1020.9
2023-05-06T00:45:15.738Z,1020.8
2023-05-06T00:46:26.175Z,1020.8
2023-05-06T00:47:20.204Z,1020.8
2023-05-06T00:48:15.770Z,1020.9
2023-05-06T00:49:15.841Z,1020.8
2023-05-06T00:50:15.730Z,1020.9
2023-05-06T00:51:15.695Z,1020.9
2023-05-06T00:52:15.734Z,1021.0
2023-05-06T00:53:15.761Z,1020.9
2023-05-06T00:54:15.700Z,1020.9
2023-05-06T00:55:15.704Z,1020.9
2023-05-06T00:56:15.677Z,1020.9
2023-05-06T00:57:15.760Z,1020.9
2023-05-06T00:58:15.737Z,1020.8
2023-05-06T01:01:16.066Z,1020.8
2023-05-06T01:02:46.194Z,1020.8
2023-05-06T01:03:15.769Z,1020.8
2023-05-06T01:04:15.722Z,1020.9
2023-05-06T01:05:15.696Z,1020.8
2023-05-06T01:06:15.713Z,1020.8
2023-05-06T01:07:15.737Z,1020.7
2023-05-06T01:08:15.693Z,1020.8
2023-05-06T01:09:15.721Z,1020.7
2023-05-06T01:10:15.731Z,1020.8
2023-05-06T01:11:16.008Z,1020.9
2023-05-06T01:12:15.689Z,1020.9
2023-05-06T01:13:15.887Z,1020.9
2023-05-06T01:14:15.726Z,1020.8
2023-05-06T01:15:22.348Z,1021.0
2023-05-06T01:16:15.692Z,1020.8
2023-05-06T01:17:15.809Z,1020.8
2023-05-06T01:18:15.707Z,1020.8
2023-05-06T01:19:15.648Z,1020.8
2023-05-06T01:20:15.675Z,1020.8
2023-05-06T01:21:15.686Z,1020.8
2023-05-06T01:22:15.805Z,1020.8
2023-05-06T01:23:15.665Z,1020.8
2023-05-06T01:24:15.703Z,1020.8
2023-05-06T01:25:15.664Z,1020.8
2023-05-06T01:26:15.737Z,1020.7
2023-05-06T01:27:15.695Z,1020.7
2023-05-06T01:28:15.669Z,1020.8
2023-05-06T01:29:15.697Z,1020.8
2023-05-06T01:30:15.698Z,1020.8
2023-05-06T01:31:15.749Z,1020.8
2023-05-06T01:32:15.839Z,1020.7
2023-05-06T01:33:15.884Z,1020.7
2023-05-06T01:34:15.645Z,1020.7
2023-05-06T01:35:15.660Z,1020.8
2023-05-06T01:36:15.669Z,1020.7
2023-05-06T01:37:16.387Z,1020.8
2023-05-06T01:38:15.665Z,1020.7
2023-05-06T01:39:15.656Z,1020.7
2023-05-06T01:40:15.669Z,1020.7
2023-05-06T01:41:15.670Z,1020.8
2023-05-06T01:42:15.761Z,1020.8
2023-05-06T01:43:15.657Z,1020.7
2023-05-06T01:44:15.863Z,1020.7
2023-05-06T01:45:15.679Z,1020.7
2023-05-06T01:46:15.793Z,1020.7
2023-05-06T01:47:15.727Z,1020.7
2023-05-06T01:48:15.644Z,1020.7
2023-05-06T01:49:15.648Z,1020.7
2023-05-06T01:50:15.675Z,1020.7
2023-05-06T01:51:15.609Z,1020.7
2023-05-06T01:52:15.666Z,1020.8
2023-05-06T01:53:15.586Z,1020.7
2023-05-06T01:54:15.645Z,1020.7
2023-05-06T01:55:15.806Z,1020.7
2023-05-06T01:56:15.626Z,1020.7
2023-05-06T01:57:15.621Z,1020.7
2023-05-06T01:58:15.589Z,1020.7
2023-05-06T01:59:15.696Z,1020.7
2023-05-06T02:00:15.664Z,1020.6
2023-05-06T02:01:15.674Z,1020.7
2023-05-06T02:02:15.587Z,1020.7
2023-05-06T02:03:15.747Z,1020.6
2023-05-06T02:04:15.597Z,1020.6
2023-05-06T02:05:15.644Z,1020.7
2023-05-06T02:06:15.771Z,1020.7
2023-05-06T02:07:15.615Z,1020.6
2023-05-06T02:08:15.658Z,1020.5
2023-05-06T02:09:15.602Z,1020.6
2023-05-06T02:10:15.686Z,1020.6
2023-05-06T02:11:15.683Z,1020.6
2023-05-06T02:12:15.572Z,1020.6
2023-05-06T02:13:15.830Z,1020.6
2023-05-06T02:14:15.586Z,1020.6
2023-05-06T02:15:15.601Z,1020.6
2023-05-06T02:16:15.604Z,1020.6
2023-05-06T02:17:15.757Z,1020.6
2023-05-06T02:18:15.600Z,1020.6
2023-05-06T02:19:15.607Z,1020.6
2023-05-06T02:21:15.635Z,1020.6
2023-05-06T02:22:15.603Z,1020.5
2023-05-06T02:23:15.592Z,1020.6
2023-05-06T02:24:15.604Z,1020.5
2023-05-06T02:25:15.561Z,1020.5
2023-05-06T02:26:15.573Z,1020.5
2023-05-06T02:27:15.644Z,1020.5
2023-05-06T02:28:15.755Z,1020.5
2023-05-06T02:29:15.564Z,1020.4
2023-05-06T02:30:15.613Z,1020.4
2023-05-06T02:31:15.593Z,1020.4
2023-05-06T02:32:15.578Z,1020.4
2023-05-06T02:33:15.511Z,1020.4
2023-05-06T02:34:15.553Z,1020.4
2023-05-06T02:35:15.565Z,1020.4
2023-05-06T02:36:15.576Z,1020.4
2023-05-06T02:37:15.575Z,1020.4
2023-05-06T02:38:15.551Z,1020.5
2023-05-06T02:39:15.710Z,1020.4
2023-05-06T02:40:15.529Z,1020.5
2023-05-06T02:41:15.620Z,1020.4
2023-05-06T02:42:15.535Z,1020.4
2023-05-06T02:43:15.605Z,1020.5
2023-05-06T02:44:15.509Z,1020.4
2023-05-06T02:45:15.566Z,1020.4
2023-05-06T02:46:15.666Z,1020.3
2023-05-06T02:47:15.670Z,1020.4
2023-05-06T02:48:15.585Z,1020.3
2023-05-06T02:49:15.538Z,1020.3
2023-05-06T02:50:15.920Z,1020.4
2023-05-06T02:51:15.509Z,1020.3
2023-05-06T02:52:15.532Z,1020.4
2023-05-06T02:53:15.538Z,1020.3
2023-05-06T02:54:15.537Z,1020.4
2023-05-06T02:55:15.576Z,1020.4
2023-05-06T02:56:15.594Z,1020.4
2023-05-06T02:57:15.513Z,1020.5
2023-05-06T02:58:15.532Z,1020.4
2023-05-06T02:59:15.528Z,1020.4
2023-05-06T03:00:15.536Z,1020.4
2023-05-06T03:01:15.746Z,1020.4
2023-05-06T03:02:15.562Z,1020.4
2023-05-06T03:03:15.549Z,1020.4
2023-05-06T03:04:15.703Z,1020.4
2023-05-06T03:05:15.544Z,1020.4
2023-05-06T03:06:15.545Z,1020.4
2023-05-06T03:07:15.521Z,1020.5
2023-05-06T03:08:17.547Z,1020.4
2023-05-06T03:09:15.507Z,1020.5
2023-05-06T03:10:15.468Z,1020.4
2023-05-06T03:11:15.546Z,1020.4
2023-05-06T03:12:15.463Z,1020.4
2023-05-06T03:13:15.664Z,1020.3
2023-05-06T03:14:15.774Z,1020.4
2023-05-06T03:15:15.515Z,1020.4
2023-05-06T03:16:15.494Z,1020.4
2023-05-06T03:17:15.554Z,1020.4
2023-05-06T03:18:15.504Z,1020.4
2023-05-06T03:19:16.516Z,1020.4
2023-05-06T03:20:15.497Z,1020.4
2023-05-06T03:21:15.485Z,1020.3
2023-05-06T03:22:15.500Z,1020.3
2023-05-06T03:23:15.475Z,1020.4
2023-05-06T03:24:15.525Z,1020.4
2023-05-06T03:25:15.457Z,1020.3
2023-05-06T03:26:15.447Z,1020.3
2023-05-06T03:27:15.768Z,1020.4
2023-05-06T03:28:21.554Z,1020.3
2023-05-06T03:29:15.478Z,1020.3
2023-05-06T03:30:15.566Z,1020.4
2023-05-06T03:31:15.559Z,1020.4
2023-05-06T03:32:15.438Z,1020.4
2023-05-06T03:33:15.479Z,1020.5
2023-05-06T03:34:15.459Z,1020.4
2023-05-06T03:35:15.488Z,1020.5
2023-05-06T03:36:15.466Z,1020.4
2023-05-06T03:38:15.441Z,1020.4
2023-05-06T03:39:15.417Z,1020.4
2023-05-06T03:40:15.430Z,1020.4
2023-05-06T03:41:15.440Z,1020.4
2023-05-06T03:42:15.487Z,1020.5
2023-05-06T03:43:15.431Z,1020.5
2023-05-06T03:44:15.436Z,1020.5
2023-05-06T03:45:15.602Z,1020.5
2023-05-06T03:46:15.454Z,1020.5
2023-05-06T03:47:15.428Z,1020.5
2023-05-06T03:48:15.435Z,1020.5
2023-05-06T03:49:15.497Z,1020.5
2023-05-06T03:50:15.431Z,1020.5
2023-05-06T03:51:15.397Z,1020.5
2023-05-06T03:52:15.466Z,1020.5
2023-05-06T03:53:15.412Z,1020.5
2023-05-06T03:54:15.498Z,1020.5
2023-05-06T03:55:15.416Z,1020.5
2023-05-06T03:56:15.569Z,1020.4
2023-05-06T03:57:15.506Z,1020.6
2023-05-06T03:58:15.809Z,1020.5
2023-05-06T03:59:15.846Z,1020.5
2023-05-06T04:00:15.392Z,1020.5
2023-05-06T04:01:15.405Z,1020.6
2023-05-06T04:02:15.475Z,1020.5
2023-05-06T04:03:15.588Z,1020.5
2023-05-06T04:04:15.440Z,1020.6
2023-05-06T04:05:15.418Z,1020.6
2023-05-06T04:06:15.404Z,1020.6
2023-05-06T04:09:15.391Z,1020.7
2023-05-06T04:10:15.436Z,1020.5
2023-05-06T04:11:15.366Z,1020.5
2023-05-06T04:12:15.385Z,1020.5
2023-05-06T04:13:15.636Z,1020.5
2023-05-06T04:14:15.390Z,1020.5
2023-05-06T04:15:15.427Z,1020.4
2023-05-06T04:16:15.375Z,1020.5
2023-05-06T04:17:15.379Z,1020.6
2023-05-06T04:18:15.411Z,1020.5
2023-05-06T04:19:15.520Z,1020.5
2023-05-06T04:20:15.451Z,1020.5
2023-05-06T04:21:15.396Z,1020.5
2023-05-06T04:22:15.416Z,1020.6
2023-05-06T04:23:15.454Z,1020.6
2023-05-06T04:24:15.402Z,1020.6
2023-05-06T04:25:15.381Z,1020.6
2023-05-06T04:26:15.368Z,1020.6
2023-05-06T04:27:15.343Z,1020.6
2023-05-06T04:28:15.474Z,1020.6
2023-05-06T04:29:15.347Z,1020.6
2023-05-06T04:30:15.491Z,1020.6
2023-05-06T04:31:15.672Z,1020.6
2023-05-06T04:32:15.368Z,1020.6
2023-05-06T04:33:15.408Z,1020.7
2023-05-06T04:34:15.345Z,1020.6
2023-05-06T04:35:15.313Z,1020.6
2023-05-06T04:36:15.342Z,1020.5
2023-05-06T04:37:15.406Z,1020.5
2023-05-06T04:38:15.366Z,1020.5
2023-05-06T04:39:15.392Z,1020.5
2023-05-06T04:40:15.357Z,1020.5
2023-05-06T04:41:15.333Z,1020.5
2023-05-06T04:42:15.364Z,1020.4
2023-05-06T04:43:26.679Z,1020.5
2023-05-06T04:44:15.342Z,1020.4
2023-05-06T04:45:15.386Z,1020.5
2023-05-06T04:46:15.521Z,1020.5
2023-05-06T04:47:15.309Z,1020.5
2023-05-06T04:48:15.341Z,1020.4
2023-05-06T04:49:15.333Z,1020.5
2023-05-06T04:50:15.362Z,1020.5
2023-05-06T04:51:15.317Z,1020.4
2023-05-06T04:52:15.454Z,1020.4
2023-05-06T04:53:15.300Z,1020.4
2023-05-06T04:54:15.314Z,1020.4
2023-05-06T04:55:15.384Z,1020.4
2023-05-06T04:56:15.397Z,1020.3
2023-05-06T04:57:15.309Z,1020.3
2023-05-06T04:58:15.325Z,1020.3
2023-05-06T04:59:15.277Z,1020.4
2023-05-06T05:00:15.291Z,1020.4
2023-05-06T05:01:15.403Z,1020.3
2023-05-06T05:02:15.312Z,1020.3
2023-05-06T05:03:15.495Z,1020.2
2023-05-06T05:04:15.277Z,1020.3
2023-05-06T05:05:26.527Z,1020.2
2023-05-06T05:06:15.313Z,1020.3
2023-05-06T05:07:15.312Z,1020.2
2023-05-06T05:08:15.294Z,1020.3
2023-05-06T05:09:15.301Z,1020.2
2023-05-06T05:10:15.324Z,1020.1
2023-05-06T05:11:15.324Z,1020.2
2023-05-06T05:12:15.337Z,1020.1
2023-05-06T05:13:15.327Z,1020.1
2023-05-06T05:14:15.435Z,1020.2
2023-05-06T05:15:15.266Z,1020.2
2023-05-06T05:16:15.314Z,1020.1
2023-05-06T05:17:15.374Z,1020.1
2023-05-06T05:18:15.312Z,1020.1
2023-05-06T05:19:15.272Z,1020.2
2023-05-06T05:20:15.284Z,1020.1
2023-05-06T05:21:15.275Z,1020.1
2023-05-06T05:22:15.279Z,1020.1
2023-05-06T05:23:15.288Z,1020.1
2023-05-06T05:24:15.263Z,1020.1
2023-05-06T05:25:15.350Z,1020.0
2023-05-06T05:26:15.276Z,1020.0
2023-05-06T05:27:19.326Z,1020.1
2023-05-06T05:28:15.254Z,1020.0
2023-05-06T05:29:15.242Z,1020.0
2023-05-06T05:30:15.273Z,1020.0
2023-05-06T05:31:15.337Z,1020.1
2023-05-06T05:32:15.276Z,1020.1
2023-05-06T05:33:15.344Z,1020.0
2023-05-06T05:34:15.256Z,1020.1
2023-05-06T05:35:16.320Z,1020.1
2023-05-06T05:36:15.321Z,1020.0
2023-05-06T05:37:15.303Z,1020.1
2023-05-06T05:38:15.274Z,1020.1
2023-05-06T05:39:15.297Z,1020.1
2023-05-06T05:40:15.287Z,1020.0
2023-05-06T05:41:16.809Z,1020.1
2023-05-06T05:42:15.315Z,1020.0
2023-05-06T05:43:15.220Z,1020.1
2023-05-06T05:44:15.213Z,1020.1
2023-05-06T05:45:15.224Z,1020.1
2023-05-06T05:46:15.236Z,1020.1
2023-05-06T05:47:15.395Z,1020.0
2023-05-06T05:48:15.224Z,1020.1
2023-05-06T05:49:15.225Z,1020.1
2023-05-06T05:50:15.241Z,1020.0
2023-05-06T05:51:15.236Z,1020.1
2023-05-06T05:52:15.269Z,1020.0
2023-05-06T05:53:15.242Z,1020.0
2023-05-06T05:54:15.194Z,1020.1
2023-05-06T05:55:15.201Z,1020.0
2023-05-06T05:56:15.225Z,1020.0
2023-05-06T05:57:15.247Z,1020.0
2023-05-06T05:58:15.366Z,1020.0
2023-05-06T05:59:15.245Z,1020.0
2023-05-06T06:00:15.382Z,1020.0
2023-05-06T06:01:15.266Z,1020.0
2023-05-06T06:02:15.181Z,1019.9
2023-05-06T06:03:15.347Z,1019.9
2023-05-06T06:04:30.407Z,1019.9
2023-05-06T06:07:15.206Z,1019.9
2023-05-06T06:08:15.524Z,1019.9
2023-05-06T06:09:15.375Z,1019.9
2023-05-06T06:10:15.255Z,1019.9
2023-05-06T06:11:15.212Z,1019.8
2023-05-06T06:12:15.223Z,1019.9
2023-05-06T06:13:15.250Z,1019.9
2023-05-06T06:14:15.164Z,1019.9
2023-05-06T06:15:15.223Z,1019.9
2023-05-06T06:16:15.318Z,1019.9
2023-05-06T06:17:15.184Z,1019.9
2023-05-06T06:18:15.150Z,1019.8
2023-05-06T06:19:15.157Z,1019.8
2023-05-06T06:20:15.368Z,1019.8
2023-05-06T06:21:15.171Z,1019.8
2023-05-06T06:22:15.201Z,1019.7
2023-05-06T06:23:15.311Z,1019.7
2023-05-06T06:24:15.293Z,1019.7
2023-05-06T06:25:15.224Z,1019.8
2023-05-06T06:26:15.171Z,1019.7
2023-05-06T06:27:15.192Z,1019.8
2023-05-06T06:28:15.171Z,1019.8
2023-05-06T06:29:15.140Z,1019.7
2023-05-06T06:30:15.156Z,1019.7
2023-05-06T06:31:15.287Z,1019.8
2023-05-06T06:32:15.145Z,1019.7
2023-05-06T06:33:15.149Z,1019.7
2023-05-06T06:34:15.161Z,1019.8
2023-05-06T06:35:15.191Z,1019.7
2023-05-06T06:36:15.156Z,1019.7
2023-05-06T06:37:15.160Z,1019.7
2023-05-06T06:38:15.201Z,1019.7
2023-05-06T06:39:15.158Z,1019.7
2023-05-06T06:40:15.159Z,1019.7
2023-05-06T06:41:15.131Z,1019.7
2023-05-06T06:42:15.344Z,1019.7
2023-05-06T06:43:15.157Z,1019.7
2023-05-06T06:44:15.216Z,1019.7
2023-05-06T06:45:15.154Z,1019.6
2023-05-06T06:46:15.271Z,1019.7
2023-05-06T06:47:15.157Z,1019.6
2023-05-06T06:48:15.148Z,1019.6
2023-05-06T06:49:15.133Z,1019.6
2023-05-06T06:50:15.136Z,1019.6
2023-05-06T06:51:15.145Z,1019.7
2023-05-06T06:52:15.142Z,1019.7
2023-05-06T06:53:15.230Z,1019.7
2023-05-06T06:54:15.112Z,1019.6
2023-05-06T06:55:15.130Z,1019.7
2023-05-06T06:56:15.128Z,1019.7
2023-05-06T06:57:15.118Z,1019.6
2023-05-06T06:58:15.132Z,1019.7
2023-05-06T06:59:15.178Z,1019.7
2023-05-06T07:00:15.216Z,1019.7
2023-05-06T07:01:37.993Z,1019.7
2023-05-06T07:02:15.108Z,1019.6
2023-05-06T07:03:15.147Z,1019.6
2023-05-06T07:04:15.352Z,1019.6
2023-05-06T07:05:15.098Z,1019.7
2023-05-06T07:06:15.111Z,1019.6
2023-05-06T07:07:15.149Z,1019.6
2023-05-06T07:08:15.104Z,1019.5
2023-05-06T07:09:15.086Z,1019.6
2023-05-06T07:10:15.073Z,1019.6
2023-05-06T07:11:15.132Z,1019.5
2023-05-06T07:12:15.172Z,1019.6
2023-05-06T07:13:15.170Z,1019.6
2023-05-06T07:14:15.170Z,1019.6
2023-05-06T07:15:15.250Z,1019.6
2023-05-06T07:16:15.114Z,1019.5
2023-05-06T07:17:15.170Z,1019.5
2023-05-06T07:19:20.064Z,1019.5
2023-05-06T07:20:15.085Z,1019.5
2023-05-06T07:21:15.125Z,1019.4
2023-05-06T07:22:15.076Z,1019.4
2023-05-06T07:23:15.080Z,1019.4
2023-05-06T07:24:15.083Z,1019.4
2023-05-06T07:25:15.127Z,1019.4
2023-05-06T07:26:15.198Z,1019.4
2023-05-06T07:27:15.075Z,1019.4
2023-05-06T07:28:15.033Z,1019.4
2023-05-06T07:29:15.064Z,1019.3
2023-05-06T07:30:15.059Z,1019.4
2023-05-06T07:31:15.134Z,1019.3
2023-05-06T07:32:15.074Z,1019.4
2023-05-06T07:33:15.074Z,1019.3
2023-05-06T07:34:15.091Z,1019.4
2023-05-06T07:35:15.088Z,1019.3
2023-05-06T07:36:15.080Z,1019.3
2023-05-06T07:37:15.183Z,1019.3
2023-05-06T07:38:15.066Z,1019.3
2023-05-06T07:39:15.055Z,1019.3
2023-05-06T07:40:15.047Z,1019.2
2023-05-06T07:41:15.083Z,1019.3
2023-05-06T07:42:15.079Z,1019.2
2023-05-06T07:43:15.044Z,1019.2
2023-05-06T07:44:15.037Z,1019.2
2023-05-06T07:45:15.059Z,1019.1
2023-05-06T07:46:15.138Z,1019.1
2023-05-06T07:47:15.129Z,1019.2
2023-05-06T07:48:15.817Z,1019.2
2023-05-06T07:49:14.995Z,1019.1
2023-05-06T07:50:15.040Z,1019.1
2023-05-06T07:51:15.020Z,1019.1
2023-05-06T07:52:19.910Z,1019.0
2023-05-06T07:53:15.014Z,1019.1
2023-05-06T07:54:15.057Z,1019.1
2023-05-06T07:55:15.000Z,1019.1
2023-05-06T07:56:15.034Z,1019.1
2023-05-06T07:57:15.043Z,1019.1
2023-05-06T07:58:15.064Z,1019.0
2023-05-06T07:59:15.146Z,1019.1
2023-05-06T08:00:15.002Z,1019.1
2023-05-06T08:01:15.008Z,1019.1
2023-05-06T08:02:15.098Z,1019.1
2023-05-06T08:03:15.282Z,1019.2
2023-05-06T08:04:15.134Z,1019.2
2023-05-06T08:05:15.010Z,1019.2
2023-05-06T08:06:15.026Z,1019.1
2023-05-06T08:07:15.039Z,1019.2
2023-05-06T08:08:15.038Z,1019.2
2023-05-06T08:09:22.775Z,1019.2
2023-05-06T08:10:15.133Z,1019.2
2023-05-06T08:11:15.596Z,1019.2
2023-05-06T08:12:14.995Z,1019.2
2023-05-06T08:13:15.013Z,1019.0
2023-05-06T08:14:15.061Z,1019.1
2023-05-06T08:15:14.994Z,1019.1
2023-05-06T08:16:15.106Z,1019.1
2023-05-06T08:17:15.022Z,1019.1
2023-05-06T08:18:22.469Z,1019.1
2023-05-06T08:19:14.991Z,1019.1
2023-05-06T08:20:14.991Z,1019.2
2023-05-06T08:21:15.220Z,1019.1
2023-05-06T08:22:14.985Z,1019.1
2023-05-06T08:23:15.063Z,1019.1
2023-05-06T08:24:15.014Z,1019.2
2023-05-06T08:25:15.044Z,1019.2
2023-05-06T08:26:14.953Z,1019.1
2023-05-06T08:27:14.990Z,1019.1
2023-05-06T08:28:14.996Z,1019.1
2023-05-06T08:29:15.071Z,1019.2
2023-05-06T08:30:14.987Z,1019.2
2023-05-06T08:31:15.051Z,1019.1
2023-05-06T08:32:15.205Z,1019.1
2023-05-06T08:33:15.007Z,1019.1
2023-05-06T08:34:15.053Z,1019.1
2023-05-06T08:35:14.976Z,1019.1
2023-05-06T08:36:15.091Z,1019.2
2023-05-06T08:37:15.001Z,1019.1
2023-05-06T08:38:14.984Z,1019.1
2023-05-06T08:39:14.961Z,1019.1
2023-05-06T08:40:15.071Z,1019.0
2023-05-06T08:41:15.012Z,1019.1
2023-05-06T08:42:14.970Z,1019.0
2023-05-06T08:43:15.151Z,1019.1
2023-05-06T08:44:14.969Z,1019.1
2023-05-06T08:45:15.106Z,1019.0
2023-05-06T08:46:15.136Z,1019.0
2023-05-06T08:47:15.137Z,1019.0
2023-05-06T08:48:15.345Z,1019.0
2023-05-06T08:49:15.029Z,1019.0
2023-05-06T08:50:15.001Z,1018.9
2023-05-06T08:51:14.951Z,1019.1
2023-05-06T08:52:14.952Z,1018.9
2023-05-06T08:53:14.965Z,1018.9
2023-05-06T08:54:15.102Z,1019.0
2023-05-06T08:55:14.916Z,1019.0
2023-05-06T08:56:14.924Z,1018.9
2023-05-06T08:57:14.956Z,1019.0
2023-05-06T08:58:15.107Z,1018.9
2023-05-06T08:59:14.923Z,1018.9
2023-05-06T09:00:14.980Z,1018.9
2023-05-06T09:01:14.999Z,1018.9
2023-05-06T09:02:14.979Z,1018.9
2023-05-06T09:03:15.026Z,1018.9
2023-05-06T09:04:14.938Z,1018.9
2023-05-06T09:05:15.098Z,1018.8
2023-05-06T09:06:14.937Z,1018.8
2023-05-06T09:07:14.948Z,1018.8
2023-05-06T09:08:14.929Z,1018.8
2023-05-06T09:09:15.021Z,1018.7
2023-05-06T09:10:14.970Z,1018.7
2023-05-06T09:11:14.902Z,1018.7
2023-05-06T09:12:14.908Z,1018.6
2023-05-06T09:13:15.038Z,1018.7
2023-05-06T09:14:14.924Z,1018.7
2023-05-06T09:15:14.932Z,1018.6
2023-05-06T09:16:15.147Z,1018.6
2023-05-06T09:17:14.910Z,1018.6
2023-05-06T09:18:14.922Z,1018.5
2023-05-06T09:19:14.946Z,1018.5
2023-05-06T09:20:14.893Z,1018.6
2023-05-06T09:21:14.932Z,1018.6
2023-05-06T09:22:14.919Z,1018.5
2023-05-06T09:23:14.980Z,1018.5
2023-05-06T09:24:14.930Z,1018.5
2023-05-06T09:25:14.952Z,1018.5
2023-05-06T09:26:14.943Z,1018.4
2023-05-06T09:27:15.287Z,1018.4
2023-05-06T09:28:14.947Z,1018.4
2023-05-06T09:29:14.888Z,1018.5
2023-05-06T09:30:14.902Z,1018.4
2023-05-06T09:31:15.000Z,1018.4
2023-05-06T09:32:14.920Z,1018.4
2023-05-06T09:33:14.994Z,1018.5
2023-05-06T09:34:14.936Z,1018.4
2023-05-06T09:35:14.882Z,1018.4
2023-05-06T09:36:14.854Z,1018.4
2023-05-06T09:37:14.973Z,1018.4
2023-05-06T09:38:15.015Z,1018.4
2023-05-06T09:39:14.908Z,1018.4
2023-05-06T09:40:14.870Z,1018.4
2023-05-06T09:41:14.941Z,1018.4
2023-05-06T09:42:14.872Z,1018.4
2023-05-06T09:43:14.896Z,1018.4
2023-05-06T09:44:14.891Z,1018.3
2023-05-06T09:45:15.011Z,1018.4
2023-05-06T09:46:14.927Z,1018.3
2023-05-06T09:47:14.854Z,1018.4
2023-05-06T09:48:14.912Z,1018.4
2023-05-06T09:49:15.024Z,1018.4
2023-05-06T09:50:14.906Z,1018.4
2023-05-06T09:51:14.843Z,1018.4
2023-05-06T09:52:14.837Z,1018.4
2023-05-06T09:53:14.896Z,1018.4
2023-05-06T09:54:14.849Z,1018.5
2023-05-06T09:55:14.897Z,1018.5
2023-05-06T09:56:14.889Z,1018.5
2023-05-06T09:57:14.887Z,1018.5
2023-05-06T09:58:14.833Z,1018.6
2023-05-06T09:59:14.850Z,1018.6
2023-05-06T10:00:15.015Z,1018.7
2023-05-06T10:01:19.177Z,1018.8
2023-05-06T10:02:14.976Z,1018.8
2023-05-06T10:03:14.995Z,1018.9
2023-05-06T10:04:14.979Z,1018.9
2023-05-06T10:05:15.169Z,1019.0
2023-05-06T10:06:14.866Z,1019.1
2023-05-06T10:07:14.837Z,1019.1
2023-05-06T10:08:14.855Z,1019.2
2023-05-06T10:09:14.880Z,1019.2
2023-05-06T10:10:14.861Z,1019.2
2023-05-06T10:11:14.955Z,1019.2
2023-05-06T10:12:14.830Z,1019.2
2023-05-06T10:13:14.933Z,1019.2
2023-05-06T10:14:14.830Z,1019.2
2023-05-06T10:15:14.857Z,1019.2
2023-05-06T10:16:15.947Z,1019.1
2023-05-06T10:17:14.793Z,1019.1
2023-05-06T10:18:14.821Z,1019.1
2023-05-06T10:19:14.834Z,1019.2
2023-05-06T10:20:14.833Z,1019.2
2023-05-06T10:21:14.858Z,1019.1
2023-05-06T10:22:15.012Z,1019.1
2023-05-06T10:23:14.835Z,1019.2
2023-05-06T10:24:14.810Z,1019.2
2023-05-06T10:25:14.823Z,1019.1
2023-05-06T10:26:14.822Z,1019.1
2023-05-06T10:27:14.794Z,1019.1
2023-05-06T10:28:22.828Z,1019.2
2023-05-06T10:29:14.819Z,1019.1
2023-05-06T10:30:14.814Z,1019.1
2023-05-06T10:31:14.816Z,1019.1
2023-05-06T10:32:14.781Z,1019.1
2023-05-06T10:33:14.958Z,1019.1
2023-05-06T10:34:14.813Z,1019.0
2023-05-06T10:35:14.842Z,1018.9
2023-05-06T10:36:14.809Z,1018.9
2023-05-06T10:37:14.784Z,1018.9
2023-05-06T10:38:14.840Z,1018.9
2023-05-06T10:39:14.840Z,1018.8
2023-05-06T10:40:14.837Z,1018.8
2023-05-06T10:41:14.805Z,1018.7
2023-05-06T10:42:14.804Z,1018.8
2023-05-06T10:43:14.735Z,1018.8
2023-05-06T10:45:14.850Z,1018.8
2023-05-06T10:46:14.854Z,1018.7
2023-05-06T10:47:14.746Z,1018.8
2023-05-06T10:48:14.740Z,1018.7
2023-05-06T10:49:14.881Z,1018.6
2023-05-06T10:50:14.746Z,1018.6
2023-05-06T10:51:14.835Z,1018.7
2023-05-06T10:52:14.787Z,1018.6
2023-05-06T10:53:14.830Z,1018.6
2023-05-06T10:54:14.776Z,1018.6
2023-05-06T10:55:14.780Z,1018.7
2023-05-06T10:56:14.746Z,1018.6
2023-05-06T10:57:14.789Z,1018.7
2023-05-06T10:58:14.936Z,1018.7
2023-05-06T10:59:14.756Z,1018.6
2023-05-06T11:00:14.742Z,1018.6
2023-05-06T11:01:14.768Z,1018.5
2023-05-06T11:03:14.957Z,1018.5
2023-05-06T11:04:14.761Z,1018.5
2023-05-06T11:05:14.763Z,1018.5
2023-05-06T11:06:14.882Z,1018.5
2023-05-06T11:07:14.763Z,1018.6
2023-05-06T11:08:19.408Z,1018.5
2023-05-06T11:09:14.752Z,1018.5
2023-05-06T11:10:14.784Z,1018.5
2023-05-06T11:11:14.747Z,1018.6
2023-05-06T11:12:14.762Z,1018.7
2023-05-06T11:13:14.784Z,1018.6
2023-05-06T11:14:14.788Z,1018.7
2023-05-06T11:15:14.754Z,1018.6
2023-05-06T11:16:14.833Z,1018.7
2023-05-06T11:17:14.968Z,1018.6
2023-05-06T11:18:14.803Z,1018.6
2023-05-06T11:19:14.889Z,1018.6
2023-05-06T11:20:14.839Z,1018.6
2023-05-06T11:21:14.857Z,1018.6
2023-05-06T11:22:14.684Z,1018.6
2023-05-06T11:23:14.789Z,1018.5
2023-05-06T11:24:14.950Z,1018.4
2023-05-06T11:25:14.966Z,1018.4
2023-05-06T11:26:15.015Z,1018.5
2023-05-06T11:27:14.759Z,1018.4
2023-05-06T11:28:15.184Z,1018.3
2023-05-06T11:29:14.851Z,1018.3
2023-05-06T11:30:14.857Z,1018.4
2023-05-06T11:31:14.857Z,1018.4
2023-05-06T11:32:14.724Z,1018.3
2023-05-06T11:33:14.818Z,1018.4
2023-05-06T11:34:14.944Z,1018.3
2023-05-06T11:35:14.951Z,1018.3
2023-05-06T11:36:14.743Z,1018.2
2023-05-06T11:37:14.756Z,1018.3
2023-05-06T11:38:14.671Z,1018.2
2023-05-06T11:39:14.670Z,1018.2
2023-05-06T11:40:14.733Z,1018.2
2023-05-06T11:41:14.780Z,1018.2
2023-05-06T11:42:14.665Z,1018.2
2023-05-06T11:43:14.686Z,1018.2
2023-05-06T11:44:14.660Z,1018.2
2023-05-06T11:45:14.721Z,1018.2
2023-05-06T11:46:14.750Z,1018.2
2023-05-06T11:47:14.684Z,1018.2
2023-05-06T11:48:14.677Z,1018.2
2023-05-06T11:49:14.707Z,1018.1
2023-05-06T11:50:14.994Z,1018.1
2023-05-06T11:51:14.659Z,1018.1
2023-05-06T11:52:14.662Z,1018.0
2023-05-06T11:53:14.649Z,1018.1
2023-05-06T11:54:14.730Z,1018.1
2023-05-06T11:55:14.629Z,1018.1
2023-05-06T11:56:14.746Z,1018.1
2023-05-06T11:57:14.714Z,1018.1
2023-05-06T11:58:14.671Z,1018.1
2023-05-06T11:59:14.677Z,1018.1
2023-05-06T12:00:14.772Z,1018.1
2023-05-06T12:01:14.900Z,1018.1
2023-05-06T12:02:15.606Z,1018.1
2023-05-06T12:03:15.554Z,1018.1
2023-05-06T12:04:15.677Z,1018.1
2023-05-06T12:05:14.790Z,1018.1
2023-05-06T12:06:15.804Z,1018.1
2023-05-06T12:07:15.511Z,1018.1
2023-05-06T12:08:26.548Z,1018.1
2023-05-06T12:09:15.510Z,1018.2
2023-05-06T12:10:14.649Z,1018.1
2023-05-06T12:11:14.699Z,1018.1
2023-05-06T12:12:14.738Z,1018.1
2023-05-06T12:13:15.570Z,1018.1
2023-05-06T12:14:15.499Z,1018.2
2023-05-06T12:15:15.525Z,1018.1
2023-05-06T12:16:14.674Z,1018.2
2023-05-06T12:17:15.360Z,1018.1
2023-05-06T12:18:15.375Z,1018.1
2023-05-06T12:19:15.509Z,1018.1
2023-05-06T12:20:14.641Z,1018.1
2023-05-06T12:21:15.391Z,1018.2
2023-05-06T12:22:14.627Z,1018.1
2023-05-06T12:23:14.639Z,1018.2
2023-05-06T12:24:14.670Z,1018.2
2023-05-06T12:25:14.650Z,1018.2
2023-05-06T12:26:14.650Z,1018.2
2023-05-06T12:27:14.652Z,1018.2
2023-05-06T12:28:14.664Z,1018.2
2023-05-06T12:29:14.605Z,1018.3
2023-05-06T12:30:14.610Z,1018.3
2023-05-06T12:31:14.631Z,1018.2
2023-05-06T12:32:14.626Z,1018.3
2023-05-06T12:33:14.828Z,1018.2
2023-05-06T12:34:14.573Z,1018.4
2023-05-06T12:35:14.687Z,1018.4
2023-05-06T12:36:14.606Z,1018.3
2023-05-06T12:37:14.621Z,1018.4
2023-05-06T12:38:14.716Z,1018.4
2023-05-06T12:39:14.649Z,1018.3